Time;durP1;ratioP1;P1;durP2;ratioP2;P2;SDS_P1;SDS_P2;PMS_P1;PMS_P2;Temp;Humidity;BMP_temperature;BMP_pressure;BME280_temperature;BME280_humidity;BME280_pressure;Samples;Min_cycle;Max_cycle;Signal;HPM_P1;HPM_P2
2022/03/03 00:01:47;;;;;;;19.10;10.77;;;;;;;-3.37;80.72;97624.06;5063194;28;20090;-63
2022/03/03 00:04:14;;;;;;;26.70;14.40;;;;;;;-3.38;80.80;97625.06;5047156;28;20045;-67
2022/03/03 00:06:41;;;;;;;20.45;11.77;;;;;;;-3.34;80.98;97626.41;5037032;28;20068;-64
2022/03/03 00:09:08;;;;;;;18.67;10.77;;;;;;;-3.30;80.62;97633.06;5048598;28;20393;-65
2022/03/03 00:11:34;;;;;;;21.20;12.20;;;;;;;-3.23;80.31;97624.47;5046803;28;20060;-64
2022/03/03 00:14:01;;;;;;;18.83;11.23;;;;;;;-3.21;79.68;97625.97;5048155;28;20071;-66
2022/03/03 00:16:27;;;;;;;26.05;14.30;;;;;;;-3.25;79.81;97629.09;5030533;28;20408;-64
2022/03/03 00:18:54;;;;;;;22.33;10.77;;;;;;;-3.27;80.58;97639.84;5028701;28;20563;-66
2022/03/03 00:21:20;;;;;;;25.90;11.85;;;;;;;-3.27;79.95;97632.72;5043426;28;20056;-68
2022/03/03 00:23:47;;;;;;;22.05;11.02;;;;;;;-3.47;80.25;97634.75;5042620;28;20041;-65
2022/03/03 00:26:14;;;;;;;18.75;12.52;;;;;;;-3.66;80.96;97639.28;5046042;28;20056;-64
2022/03/03 00:28:40;;;;;;;22.85;12.05;;;;;;;-3.65;80.54;97640.09;5047941;28;20037;-65
2022/03/03 00:31:07;;;;;;;29.35;12.30;;;;;;;-3.71;81.00;97630.97;5035380;28;20057;-67
2022/03/03 00:33:33;;;;;;;19.25;11.85;;;;;;;-3.72;81.27;97631.13;5048048;28;20055;-63
2022/03/03 00:36:00;;;;;;;18.80;10.57;;;;;;;-3.69;80.91;97636.13;5035655;28;20489;-65
2022/03/03 00:38:27;;;;;;;22.13;11.45;;;;;;;-3.76;81.38;97632.41;5046454;28;20647;-65
2022/03/03 00:40:53;;;;;;;20.85;12.80;;;;;;;-3.82;81.46;97621.47;5036644;28;20045;-66
2022/03/03 00:43:20;;;;;;;22.08;11.75;;;;;;;-3.73;81.71;97632.13;5026308;28;20045;-65
2022/03/03 00:45:46;;;;;;;17.45;9.77;;;;;;;-3.68;81.46;97632.47;5037044;28;20536;-65
2022/03/03 00:48:13;;;;;;;18.83;10.15;;;;;;;-3.62;81.31;97634.50;5030854;28;20052;-63
2022/03/03 00:50:40;;;;;;;19.40;10.60;;;;;;;-3.54;80.80;97628.44;5035747;28;20037;-66
2022/03/03 00:53:06;;;;;;;19.85;10.90;;;;;;;-3.54;80.89;97631.91;5046029;28;20476;-65
2022/03/03 00:55:33;;;;;;;21.20;11.27;;;;;;;-3.55;80.63;97634.69;5046636;28;20052;-65
2022/03/03 00:57:59;;;;;;;20.13;10.27;;;;;;;-3.53;80.79;97630.91;5032290;28;20045;-68
2022/03/03 01:00:26;;;;;;;18.10;10.10;;;;;;;-3.56;80.96;97635.69;5051183;28;20049;-65
2022/03/03 01:02:53;;;;;;;23.58;11.48;;;;;;;-3.56;81.05;97631.25;5052789;28;20037;-65
2022/03/03 01:05:20;;;;;;;20.15;10.57;;;;;;;-3.34;80.63;97641.47;5043491;28;20663;-65
2022/03/03 01:07:46;;;;;;;17.92;9.73;;;;;;;-3.46;80.12;97643.53;5034448;28;20050;-64
2022/03/03 01:10:13;;;;;;;26.27;11.07;;;;;;;-3.53;80.49;97643.34;5046483;28;20048;-65
2022/03/03 01:12:40;;;;;;;19.98;11.63;;;;;;;-3.78;81.04;97645.78;5047342;28;20049;-63
2022/03/03 01:15:09;;;;;;;21.70;11.05;;;;;;;-3.94;81.35;97636.72;5046397;28;20420;-64
2022/03/03 01:17:36;;;;;;;18.55;10.75;;;;;;;-3.88;81.20;97630.00;5037538;28;20037;-63
2022/03/03 01:20:05;;;;;;;18.58;10.65;;;;;;;-3.73;80.90;97626.81;5046535;28;20496;-66
2022/03/03 01:22:31;;;;;;;23.08;10.93;;;;;;;-3.68;81.66;97633.28;5044016;28;20053;-67
2022/03/03 01:24:58;;;;;;;18.25;10.15;;;;;;;-4.15;80.57;97620.34;5030918;28;20079;-64
2022/03/03 01:27:25;;;;;;;22.23;11.50;;;;;;;-4.47;82.18;97615.44;5045716;28;20516;-66
2022/03/03 01:29:52;;;;;;;24.02;12.60;;;;;;;-4.44;83.59;97616.94;5045947;28;20040;-64
2022/03/03 01:32:19;;;;;;;26.77;11.73;;;;;;;-4.44;83.12;97606.38;5041095;28;20053;-67
2022/03/03 01:34:45;;;;;;;22.88;11.77;;;;;;;-4.38;83.31;97604.94;5038644;28;20115;-65
2022/03/03 01:37:12;;;;;;;19.88;10.55;;;;;;;-4.43;82.90;97594.81;5033541;28;20087;-65
2022/03/03 01:39:38;;;;;;;21.27;11.80;;;;;;;-4.38;82.40;97597.88;5046148;28;20056;-65
2022/03/03 01:42:05;;;;;;;24.73;11.05;;;;;;;-4.29;82.57;97587.34;5035211;28;20720;-63
2022/03/03 01:44:32;;;;;;;17.40;10.05;;;;;;;-4.07;82.98;97594.81;5043887;28;20045;-66
2022/03/03 01:47:00;;;;;;;18.20;10.43;;;;;;;-3.94;81.79;97604.97;5046064;28;20553;-63
2022/03/03 01:49:27;;;;;;;21.02;10.57;;;;;;;-3.86;80.50;97598.94;5046940;28;20052;-63
2022/03/03 01:51:53;;;;;;;16.52;8.38;;;;;;;-3.69;79.91;97599.06;5037577;28;20064;-68
2022/03/03 01:54:20;;;;;;;17.73;10.63;;;;;;;-3.60;79.62;97595.47;5026298;28;20045;-65
2022/03/03 01:56:47;;;;;;;20.88;11.07;;;;;;;-3.82;79.41;97602.09;5026638;28;20046;-63
2022/03/03 01:59:15;;;;;;;19.92;11.88;;;;;;;-4.21;80.77;97596.19;5035112;28;20580;-62
2022/03/03 02:01:42;;;;;;;16.95;10.57;;;;;;;-4.66;81.57;97597.06;5059219;28;20041;-64
2022/03/03 02:04:10;;;;;;;19.33;10.63;;;;;;;-4.93;82.94;97593.47;5038366;28;20045;-64
2022/03/03 02:06:37;;;;;;;21.08;11.23;;;;;;;-5.10;83.25;97599.41;5041243;28;20055;-66
2022/03/03 02:09:05;;;;;;;21.60;11.10;;;;;;;-5.18;84.10;97601.94;5046338;28;20142;-66
2022/03/03 02:11:32;;;;;;;21.80;12.02;;;;;;;-4.87;83.75;97590.25;5045293;28;20044;-64
2022/03/03 02:14:02;;;;;;;18.67;10.82;;;;;;;-4.70;83.16;97593.91;5045815;28;20041;-66
2022/03/03 02:16:28;;;;;;;24.35;10.88;;;;;;;-4.88;83.13;97596.50;5042353;28;20056;-66
2022/03/03 02:18:55;;;;;;;23.52;11.15;;;;;;;-5.21;83.43;97591.66;5025962;28;20068;-62
2022/03/03 02:21:22;;;;;;;20.08;10.68;;;;;;;-5.35;83.61;97599.09;5029738;28;20099;-63
2022/03/03 02:23:49;;;;;;;22.05;10.57;;;;;;;-5.21;84.55;97594.31;5046360;28;20041;-64
2022/03/03 02:26:19;;;;;;;23.83;10.75;;;;;;;-5.18;84.26;97593.19;5043299;28;20044;-62
2022/03/03 02:28:50;;;;;;;25.23;12.95;;;;;;;-5.20;84.53;97595.97;5044481;28;20099;-63
2022/03/03 02:31:17;;;;;;;22.45;11.48;;;;;;;-5.11;85.10;97597.75;5042885;28;20459;-63
2022/03/03 02:33:45;;;;;;;21.50;12.18;;;;;;;-4.94;85.19;97592.63;5034274;28;20998;-64
2022/03/03 02:36:28;;;;;;;29.17;14.32;;;;;;;-4.83;84.05;97592.44;5034353;28;20040;-62
2022/03/03 02:38:57;;;;;;;20.85;10.95;;;;;;;-4.68;83.88;97594.59;5036032;28;20045;-63
2022/03/03 02:41:25;;;;;;;19.63;10.32;;;;;;;-4.49;83.08;97590.97;5041956;28;20504;-62
2022/03/03 02:43:52;;;;;;;20.85;10.40;;;;;;;-4.34;81.99;97587.81;5024918;28;20041;-62
2022/03/03 02:46:19;;;;;;;22.17;11.07;;;;;;;-4.44;82.21;97593.16;5034540;28;20052;-67
2022/03/03 02:48:46;;;;;;;22.38;10.77;;;;;;;-4.47;82.53;97593.44;5026226;28;20858;-62
2022/03/03 02:51:13;;;;;;;16.85;9.20;;;;;;;-4.56;82.21;97582.00;5040418;28;20687;-62
2022/03/03 02:53:40;;;;;;;20.90;10.07;;;;;;;-4.54;82.32;97584.47;5025930;28;20049;-62
2022/03/03 02:56:07;;;;;;;22.20;12.25;;;;;;;-4.54;82.09;97584.47;5041308;28;20114;-64
2022/03/03 02:58:34;;;;;;;23.50;12.77;;;;;;;-4.87;82.62;97583.16;5027052;28;20045;-64
2022/03/03 03:01:04;;;;;;;19.95;11.93;;;;;;;-4.76;83.33;97576.81;5052525;28;20090;-62
2022/03/03 03:03:31;;;;;;;18.90;10.18;;;;;;;-4.89;83.55;97577.19;5044759;28;20056;-65
2022/03/03 03:05:58;;;;;;;23.92;11.27;;;;;;;-4.84;83.81;97572.28;5036583;28;20049;-62
2022/03/03 03:08:25;;;;;;;21.58;11.88;;;;;;;-4.83;83.44;97578.41;5044831;28;20053;-62
2022/03/03 03:10:51;;;;;;;23.30;11.52;;;;;;;-4.71;83.45;97573.75;5044187;28;20057;-65
2022/03/03 03:13:18;;;;;;;20.95;11.68;;;;;;;-4.67;83.33;97566.34;5026234;28;20077;-63
2022/03/03 03:15:45;;;;;;;19.73;11.75;;;;;;;-4.47;83.56;97567.88;5024659;28;20049;-62
2022/03/03 03:18:20;;;;;;;18.27;10.80;;;;;;;-4.46;80.96;97563.41;5037623;28;20049;-63
2022/03/03 03:20:50;;;;;;;21.48;11.70;;;;;;;-4.74;81.67;97563.47;5040936;28;20041;-62
2022/03/03 03:23:19;;;;;;;20.75;10.70;;;;;;;-4.87;82.57;97558.56;5048448;28;20053;-63
2022/03/03 03:25:47;;;;;;;23.05;11.50;;;;;;;-5.10;83.14;97562.44;5038724;28;20044;-66
2022/03/03 03:28:16;;;;;;;23.38;13.40;;;;;;;-5.22;83.74;97551.25;5047535;28;20094;-64
2022/03/03 03:30:43;;;;;;;20.48;10.77;;;;;;;-5.34;83.86;97547.13;5049032;28;20044;-65
2022/03/03 03:33:10;;;;;;;22.27;11.98;;;;;;;-5.25;84.19;97542.78;5047689;28;20049;-65
2022/03/03 03:35:36;;;;;;;21.67;11.38;;;;;;;-5.35;83.71;97548.09;5048769;28;20048;-65
2022/03/03 03:38:04;;;;;;;17.27;10.35;;;;;;;-5.31;84.34;97543.38;5040752;28;21276;-64
2022/03/03 03:40:30;;;;;;;18.80;12.02;;;;;;;-5.28;83.74;97545.69;5049277;28;20052;-66
2022/03/03 03:42:57;;;;;;;18.40;10.30;;;;;;;-5.18;83.66;97549.13;5046235;28;20037;-64
2022/03/03 03:45:24;;;;;;;18.05;10.70;;;;;;;-5.12;84.08;97540.63;5063379;28;20494;-66
2022/03/03 03:47:51;;;;;;;20.10;11.77;;;;;;;-5.09;83.53;97547.41;5038416;28;20041;-66
2022/03/03 03:50:17;;;;;;;21.42;10.63;;;;;;;-4.98;83.43;97536.66;5052099;28;20044;-64
2022/03/03 03:52:44;;;;;;;19.70;10.68;;;;;;;-4.87;83.21;97532.97;5034300;28;20706;-66
2022/03/03 03:55:12;;;;;;;21.77;11.00;;;;;;;-4.88;82.64;97528.66;5032912;28;20045;-64
2022/03/03 03:57:39;;;;;;;23.70;10.98;;;;;;;-5.03;83.86;97520.41;5042018;28;20033;-64
2022/03/03 04:00:09;;;;;;;23.02;12.18;;;;;;;-4.89;84.14;97519.09;5045670;28;20523;-62
2022/03/03 04:02:42;;;;;;;17.15;9.30;;;;;;;-4.73;82.92;97521.06;5050684;28;20045;-63
2022/03/03 04:05:11;;;;;;;22.77;11.17;;;;;;;-4.61;83.30;97524.28;5044421;28;20056;-65
2022/03/03 04:07:39;;;;;;;19.70;10.85;;;;;;;-4.48;81.25;97528.38;5027945;28;20614;-65
2022/03/03 04:10:07;;;;;;;17.20;9.80;;;;;;;-4.51;80.28;97531.31;5040629;28;20093;-62
2022/03/03 04:12:33;;;;;;;17.98;9.32;;;;;;;-4.61;80.24;97524.28;5028035;28;20045;-67
2022/03/03 04:15:00;;;;;;;16.33;9.05;;;;;;;-4.74;81.71;97523.84;5055113;28;20045;-63
2022/03/03 04:17:27;;;;;;;19.60;10.35;;;;;;;-4.50;81.65;97528.50;5049018;28;20045;-63
2022/03/03 04:19:53;;;;;;;18.77;9.95;;;;;;;-4.40;81.05;97525.78;5037202;28;20045;-65
2022/03/03 04:22:20;;;;;;;23.17;10.88;;;;;;;-4.40;81.55;97531.06;5039780;28;20042;-64
2022/03/03 04:24:46;;;;;;;20.40;10.95;;;;;;;-4.38;81.61;97526.47;5029208;28;20037;-65
2022/03/03 04:27:13;;;;;;;24.63;14.00;;;;;;;-4.55;82.37;97527.31;5047575;28;20056;-64
2022/03/03 04:29:40;;;;;;;25.70;13.15;;;;;;;-4.64;82.71;97532.50;5046786;28;20048;-65
2022/03/03 04:32:07;;;;;;;27.38;14.07;;;;;;;-4.82;83.33;97529.88;5041757;28;20488;-63
2022/03/03 04:34:33;;;;;;;23.17;10.35;;;;;;;-4.85;82.96;97533.66;5035895;28;20041;-64
2022/03/03 04:37:00;;;;;;;23.63;11.05;;;;;;;-4.75;83.60;97532.75;5046550;28;20049;-66
2022/03/03 04:39:27;;;;;;;21.48;11.27;;;;;;;-4.79;82.92;97526.91;5046488;28;20041;-64
2022/03/03 04:41:53;;;;;;;22.50;12.02;;;;;;;-4.44;83.15;97530.56;5048916;28;20068;-64
2022/03/03 04:44:20;;;;;;;20.67;9.50;;;;;;;-4.56;82.01;97529.13;5034586;28;20439;-64
2022/03/03 04:46:47;;;;;;;17.95;10.52;;;;;;;-4.51;81.98;97526.00;5032901;28;20049;-64
2022/03/03 04:49:13;;;;;;;19.83;10.50;;;;;;;-4.44;81.12;97520.00;5049587;28;20068;-65
2022/03/03 04:51:40;;;;;;;25.80;12.30;;;;;;;-4.47;81.33;97520.28;5044223;28;20033;-64
2022/03/03 04:54:08;;;;;;;18.17;10.98;;;;;;;-4.67;80.97;97519.63;5044226;28;20041;-66
2022/03/03 04:56:36;;;;;;;19.13;9.90;;;;;;;-4.65;81.10;97515.00;5027028;28;20056;-66
2022/03/03 04:59:04;;;;;;;21.33;9.77;;;;;;;-4.63;81.51;97509.56;5045855;28;20037;-65
2022/03/03 05:01:31;;;;;;;19.17;9.98;;;;;;;-4.52;81.45;97506.69;5064504;28;20037;-64
2022/03/03 05:03:57;;;;;;;25.65;11.45;;;;;;;-4.53;81.69;97509.50;5030949;28;20104;-65
2022/03/03 05:06:24;;;;;;;30.45;11.85;;;;;;;-4.42;81.41;97503.13;5026914;28;20049;-64
2022/03/03 05:08:51;;;;;;;21.15;10.15;;;;;;;-4.31;80.99;97502.91;5037586;28;20476;-64
2022/03/03 05:11:17;;;;;;;14.75;9.18;;;;;;;-4.13;80.46;97496.75;5026876;28;20045;-65
2022/03/03 05:13:44;;;;;;;17.75;9.57;;;;;;;-3.99;79.83;97492.72;5035747;28;20064;-66
2022/03/03 05:16:10;;;;;;;20.60;10.43;;;;;;;-4.01;80.20;97484.09;5043624;28;20048;-64
2022/03/03 05:18:38;;;;;;;24.70;12.07;;;;;;;-4.13;80.57;97479.03;5040331;28;20085;-65
2022/03/03 05:21:05;;;;;;;25.65;12.55;;;;;;;-4.20;80.62;97485.97;5045844;28;20048;-63
2022/03/03 05:23:31;;;;;;;30.65;15.18;;;;;;;-4.30;80.54;97478.13;5033950;28;20052;-65
2022/03/03 05:25:58;;;;;;;21.75;11.57;;;;;;;-4.40;81.47;97472.91;5044883;28;20095;-65
2022/03/03 05:28:24;;;;;;;26.95;14.82;;;;;;;-4.45;81.17;97473.38;5045385;28;20045;-62
2022/03/03 05:30:51;;;;;;;21.63;11.77;;;;;;;-4.55;81.63;97474.44;5046884;28;20103;-62
2022/03/03 05:33:18;;;;;;;19.45;10.82;;;;;;;-4.58;81.56;97470.28;5040887;28;20355;-64
2022/03/03 05:35:47;;;;;;;21.15;11.75;;;;;;;-4.55;81.34;97477.09;5043751;28;20512;-64
2022/03/03 05:38:13;;;;;;;17.85;11.10;;;;;;;-4.48;81.79;97484.28;5045719;28;20040;-62
2022/03/03 05:40:40;;;;;;;21.85;10.52;;;;;;;-4.45;81.60;97491.06;5046413;28;20095;-66
2022/03/03 05:43:09;;;;;;;22.85;12.18;;;;;;;-4.42;80.93;97495.22;5038732;28;20045;-66
2022/03/03 05:45:39;;;;;;;22.77;13.20;;;;;;;-4.58;81.38;97494.09;5028198;28;20111;-62
2022/03/03 05:48:05;;;;;;;25.55;13.90;;;;;;;-4.72;81.13;97492.81;5044212;28;20040;-64
2022/03/03 05:50:32;;;;;;;21.92;10.63;;;;;;;-4.72;81.88;97487.53;5045487;28;20048;-66
2022/03/03 05:53:04;;;;;;;24.80;12.68;;;;;;;-4.64;81.60;97484.94;5033979;28;20041;-64
2022/03/03 05:55:32;;;;;;;18.75;10.88;;;;;;;-4.68;81.81;97475.69;5027016;28;20038;-67
2022/03/03 05:57:59;;;;;;;21.75;10.80;;;;;;;-4.67;81.97;97473.84;5046928;28;20049;-66
2022/03/03 06:00:28;;;;;;;24.42;11.85;;;;;;;-4.63;81.93;97476.06;5044819;28;20033;-64
2022/03/03 06:02:55;;;;;;;17.38;10.80;;;;;;;-4.54;81.62;97479.59;5027797;28;20124;-63
2022/03/03 06:05:25;;;;;;;25.58;12.77;;;;;;;-4.63;81.65;97480.50;5031320;28;20049;-65
2022/03/03 06:07:54;;;;;;;28.55;12.73;;;;;;;-4.61;81.23;97466.16;5031528;28;20048;-63
2022/03/03 06:10:23;;;;;;;20.50;11.82;;;;;;;-4.56;81.72;97473.63;5036521;28;20091;-66
2022/03/03 06:12:57;;;;;;;25.17;11.18;;;;;;;-4.51;82.19;97473.16;5032543;28;20591;-64
2022/03/03 06:15:24;;;;;;;26.17;12.35;;;;;;;-4.50;81.12;97472.19;5029865;28;20045;-64
2022/03/03 06:17:52;;;;;;;27.70;11.90;;;;;;;-4.20;81.08;97478.03;5029316;28;20053;-66
2022/03/03 06:20:19;;;;;;;24.27;11.98;;;;;;;-4.14;80.96;97476.56;5043957;28;20687;-67
2022/03/03 06:22:46;;;;;;;24.10;12.30;;;;;;;-4.12;79.91;97472.78;5036627;28;20048;-65
2022/03/03 06:25:13;;;;;;;26.50;12.93;;;;;;;-4.13;79.81;97476.41;5035430;28;20099;-67
2022/03/03 06:27:40;;;;;;;26.55;11.63;;;;;;;-4.19;79.27;97471.75;5037299;28;20511;-65
2022/03/03 06:30:07;;;;;;;22.95;11.05;;;;;;;-4.21;80.17;97471.91;5035606;28;20083;-65
2022/03/03 06:32:34;;;;;;;21.83;11.07;;;;;;;-4.21;80.20;97465.78;5038802;28;20048;-66
2022/03/03 06:35:01;;;;;;;23.40;12.57;;;;;;;-4.14;80.35;97468.63;5033946;28;20064;-65
2022/03/03 06:37:28;;;;;;;19.60;11.35;;;;;;;-4.01;79.77;97462.91;5033912;28;20045;-66
2022/03/03 06:39:54;;;;;;;22.35;11.90;;;;;;;-3.99;79.63;97459.13;5041240;28;20040;-64
2022/03/03 06:42:21;;;;;;;22.38;12.63;;;;;;;-3.93;79.35;97471.75;5040712;28;20078;-65
2022/03/03 06:44:47;;;;;;;36.22;16.20;;;;;;;-3.85;79.03;97456.88;5035156;28;20041;-66
2022/03/03 06:47:15;;;;;;;56.45;23.90;;;;;;;-3.84;79.10;97461.22;5034020;28;20909;-65
2022/03/03 06:49:42;;;;;;;18.77;9.93;;;;;;;-3.81;79.08;97440.53;5028475;28;20497;-65
2022/03/03 06:52:14;;;;;;;35.03;16.00;;;;;;;-3.86;79.38;97429.63;5041071;28;20053;-65
2022/03/03 06:54:44;;;;;;;35.75;18.17;;;;;;;-3.83;79.63;97423.19;5034836;28;20045;-64
2022/03/03 06:57:11;;;;;;;24.65;14.70;;;;;;;-3.50;78.99;97409.22;5029912;28;20091;-64
2022/03/03 06:59:39;;;;;;;32.53;17.80;;;;;;;-3.12;77.91;97412.28;5040982;28;20041;-65
2022/03/03 07:02:09;;;;;;;30.02;14.32;;;;;;;-2.87;77.10;97412.31;5041567;28;20075;-67
2022/03/03 07:04:36;;;;;;;31.75;15.68;;;;;;;-2.67;76.81;97409.31;5033147;28;20049;-65
2022/03/03 07:07:03;;;;;;;26.50;12.60;;;;;;;-2.49;76.12;97415.28;5031930;28;20731;-65
2022/03/03 07:09:30;;;;;;;23.83;14.18;;;;;;;-2.36;75.84;97411.28;5042069;28;20037;-67
2022/03/03 07:11:59;;;;;;;39.33;19.85;;;;;;;-2.05;74.49;97402.59;5037355;28;20056;-66
2022/03/03 07:14:26;;;;;;;40.17;18.75;;;;;;;-2.05;74.26;97410.56;5044164;28;20051;-63
2022/03/03 07:17:04;;;;;;;30.65;16.80;;;;;;;-2.01;74.70;97411.03;5030830;28;20697;-64
2022/03/03 07:19:37;;;;;;;35.83;15.82;;;;;;;-1.98;74.25;97418.66;5041876;28;20049;-65
2022/03/03 07:22:22;;;;;;;27.70;14.90;;;;;;;-1.95;74.54;97439.56;5047950;28;20037;-65
2022/03/03 07:25:00;;;;;;;22.58;13.25;;;;;;;-2.03;74.71;97429.78;5042959;28;20140;-66
2022/03/03 07:27:27;;;;;;;31.48;15.40;;;;;;;-2.01;74.86;97425.16;5035503;28;20053;-66
2022/03/03 07:30:00;;;;;;;26.50;14.52;;;;;;;-2.02;74.48;97420.84;5032012;28;20053;-66
2022/03/03 07:32:35;;;;;;;24.20;12.70;;;;;;;-2.01;74.87;97425.16;5035531;28;20075;-65
2022/03/03 07:35:07;;;;;;;29.02;13.35;;;;;;;-1.91;74.36;97438.22;5034017;28;20487;-65
2022/03/03 07:37:52;;;;;;;27.80;14.38;;;;;;;-1.72;74.35;97437.00;5034013;28;20107;-64
2022/03/03 07:40:19;;;;;;;30.75;13.43;;;;;;;-1.54;73.91;97440.41;5039235;28;20041;-66
2022/03/03 07:42:53;;;;;;;25.70;12.95;;;;;;;-1.35;73.41;97434.69;5034013;28;20608;-65
2022/03/03 07:45:20;;;;;;;26.55;13.15;;;;;;;-1.09;72.89;97438.00;5031701;28;20053;-65
2022/03/03 07:47:49;;;;;;;26.55;12.60;;;;;;;-1.03;72.13;97437.31;5043938;28;20052;-66
2022/03/03 07:50:17;;;;;;;24.05;12.63;;;;;;;-0.84;71.68;97428.06;5043886;28;20127;-64
2022/03/03 07:52:49;;;;;;;23.95;12.50;;;;;;;-0.74;71.11;97430.47;5036149;28;20072;-65
2022/03/03 07:55:16;;;;;;;21.83;11.48;;;;;;;-0.64;70.98;97437.34;5039015;28;20037;-65
2022/03/03 07:58:00;;;;;;;27.77;13.35;;;;;;;-0.50;70.19;97436.59;5036876;28;20045;-66
2022/03/03 08:00:34;;;;;;;20.77;12.32;;;;;;;-0.38;69.40;97436.97;5051838;28;20048;-66
2022/03/03 08:03:06;;;;;;;24.65;12.20;;;;;;;-0.27;69.76;97430.41;5031796;28;20671;-66
2022/03/03 08:05:34;;;;;;;24.70;12.07;;;;;;;0.02;68.07;97441.25;5034240;28;20053;-64
2022/03/03 08:08:02;;;;;;;26.77;11.98;;;;;;;0.04;67.96;97428.59;5045798;28;20501;-66
2022/03/03 08:10:31;;;;;;;27.48;12.43;;;;;;;0.17;67.69;97431.44;5032308;28;20042;-65
2022/03/03 08:12:59;;;;;;;23.27;12.25;;;;;;;0.17;67.60;97426.13;5048442;28;20041;-65
2022/03/03 08:15:25;;;;;;;20.33;11.20;;;;;;;0.23;67.86;97419.25;5047512;28;20037;-66
2022/03/03 08:17:53;;;;;;;22.38;11.85;;;;;;;0.34;67.79;97421.44;5050882;28;20562;-65
2022/03/03 08:20:21;;;;;;;21.45;11.15;;;;;;;0.48;67.10;97419.75;5035258;28;20037;-66
2022/03/03 08:22:48;;;;;;;20.77;11.50;;;;;;;0.52;66.89;97417.56;5029654;28;20053;-64
2022/03/03 08:25:16;;;;;;;20.00;11.35;;;;;;;0.62;66.00;97415.44;5040395;28;20049;-66
2022/03/03 08:27:43;;;;;;;22.60;11.43;;;;;;;0.84;64.28;97420.78;5031007;28;20460;-65
2022/03/03 08:30:12;;;;;;;22.85;11.40;;;;;;;1.02;63.85;97423.03;5048242;28;20493;-67
2022/03/03 08:32:43;;;;;;;18.10;10.95;;;;;;;1.17;63.53;97425.66;5046829;28;20059;-66
2022/03/03 08:35:15;;;;;;;;;;;;;;;1.27;62.66;97427.19;5030045;28;20799;-64
2022/03/03 08:37:51;;;;;;;21.60;10.60;;;;;;;1.43;62.04;97416.25;5042437;28;19920;-66
2022/03/03 08:40:18;;;;;;;24.88;13.43;;;;;;;1.64;63.26;97419.91;5046733;28;20033;-65
2022/03/03 08:42:51;;;;;;;22.65;11.98;;;;;;;1.76;63.70;97422.03;5029910;28;20045;-64
2022/03/03 08:45:19;;;;;;;23.27;12.95;;;;;;;1.86;63.97;97427.03;5041122;28;20051;-66
2022/03/03 08:48:07;;;;;;;23.15;12.65;;;;;;;1.86;64.14;97429.72;5028055;28;20045;-64
2022/03/03 08:50:37;;;;;;;19.85;11.15;;;;;;;1.98;63.66;97428.16;5047644;28;20040;-67
2022/03/03 08:53:06;;;;;;;22.15;12.20;;;;;;;2.05;63.39;97429.03;5037082;28;20041;-66
2022/03/03 08:55:34;;;;;;;29.10;13.85;;;;;;;2.14;62.38;97429.69;5043721;28;20574;-67
2022/03/03 08:58:02;;;;;;;21.17;12.20;;;;;;;2.21;62.51;97433.22;5036201;28;20746;-66
2022/03/03 09:00:30;;;;;;;21.45;12.50;;;;;;;2.31;62.42;97429.38;5036214;28;20047;-65
2022/03/03 09:02:59;;;;;;;25.52;12.85;;;;;;;2.43;61.93;97427.78;5044760;28;20394;-65
2022/03/03 09:05:26;;;;;;;22.73;12.65;;;;;;;2.48;61.42;97435.22;5024797;28;20463;-67
2022/03/03 09:07:53;;;;;;;21.13;12.27;;;;;;;2.51;60.55;97434.00;5034943;28;20087;-66
2022/03/03 09:10:20;;;;;;;21.48;12.40;;;;;;;2.58;60.59;97434.88;5053354;28;20045;-66
2022/03/03 09:12:47;;;;;;;24.27;12.73;;;;;;;2.62;61.27;97440.63;5028925;28;20068;-65
2022/03/03 09:15:13;;;;;;;23.70;12.95;;;;;;;2.55;60.62;97437.94;5053023;28;20504;-67
2022/03/03 09:17:42;;;;;;;20.83;12.18;;;;;;;2.57;60.77;97442.06;5037322;28;20098;-65
2022/03/03 09:20:13;;;;;;;20.00;12.73;;;;;;;2.55;60.67;97445.94;5031939;28;20713;-65
2022/03/03 09:22:41;;;;;;;17.52;11.65;;;;;;;2.54;61.01;97445.13;5042996;28;20037;-66
2022/03/03 09:25:08;;;;;;;25.23;13.15;;;;;;;2.60;60.35;97441.66;5047368;28;20068;-64
2022/03/03 09:27:35;;;;;;;22.73;13.13;;;;;;;2.60;59.68;97438.16;5036833;28;20508;-65
2022/03/03 09:30:04;;;;;;;25.20;12.65;;;;;;;2.68;60.09;97439.81;5039685;28;20559;-63
2022/03/03 09:32:31;;;;;;;20.55;12.32;;;;;;;2.78;59.09;97444.81;5037930;28;20647;-63
2022/03/03 09:34:59;;;;;;;27.08;12.35;;;;;;;2.83;58.87;97451.22;5039737;28;20154;-65
2022/03/03 09:37:25;;;;;;;23.42;12.50;;;;;;;2.87;58.69;97443.59;5049105;28;20053;-64
2022/03/03 09:39:52;;;;;;;25.48;12.60;;;;;;;2.90;58.21;97439.69;5059596;28;20071;-64
2022/03/03 09:42:19;;;;;;;23.92;13.10;;;;;;;2.90;58.34;97443.22;5045740;28;20041;-64
2022/03/03 09:44:46;;;;;;;19.83;12.48;;;;;;;2.95;58.25;97446.09;5036089;28;20535;-63
2022/03/03 09:47:16;;;;;;;20.13;11.70;;;;;;;3.07;58.27;97451.72;5034682;28;20087;-65
2022/03/03 09:49:42;;;;;;;23.30;12.10;;;;;;;3.21;58.07;97449.06;5034900;28;20099;-63
2022/03/03 09:52:18;;;;;;;24.17;13.20;;;;;;;3.27;58.62;97440.22;5038794;28;20052;-64
2022/03/03 09:54:55;;;;;;;20.35;11.57;;;;;;;3.24;59.30;97436.09;5043739;28;20052;-65
2022/03/03 09:57:21;;;;;;;20.27;12.07;;;;;;;3.26;58.91;97441.25;5045457;28;20045;-65
2022/03/03 09:59:48;;;;;;;22.23;11.93;;;;;;;3.27;58.54;97440.22;5050197;28;20033;-63
2022/03/03 10:02:15;;;;;;;21.55;13.35;;;;;;;3.24;58.68;97430.75;5040771;28;20049;-63
2022/03/03 10:04:41;;;;;;;28.48;14.25;;;;;;;3.32;58.34;97434.25;5027217;28;20053;-65
2022/03/03 10:07:09;;;;;;;26.92;13.60;;;;;;;3.37;58.89;97429.13;5028926;28;20508;-66
2022/03/03 10:12:40;;;;;;;23.17;12.32;;;;;;;3.51;58.23;97429.97;5032465;28;20028;-62
2022/03/03 10:15:12;;;;;;;25.42;14.10;;;;;;;3.57;58.23;97431.81;5045508;28;20045;-62
2022/03/03 10:17:38;;;;;;;23.45;12.02;;;;;;;3.61;58.36;97429.56;5036400;28;20087;-64
2022/03/03 10:20:07;;;;;;;24.70;12.30;;;;;;;3.64;57.93;97432.63;5042453;28;20037;-63
2022/03/03 10:22:45;;;;;;;24.27;13.02;;;;;;;3.68;57.82;97435.72;5045815;28;20041;-65
2022/03/03 10:25:14;;;;;;;20.38;12.20;;;;;;;3.84;56.88;97439.03;5042806;28;20088;-64
2022/03/03 10:27:41;;;;;;;22.60;12.70;;;;;;;4.05;55.66;97448.69;5044164;28;20075;-64
2022/03/03 10:30:09;;;;;;;26.67;13.57;;;;;;;4.13;55.17;97439.63;5041150;28;20033;-64
2022/03/03 10:32:38;;;;;;;25.65;12.38;;;;;;;4.18;54.28;97442.50;5044308;28;20037;-65
2022/03/03 10:35:15;;;;;;;25.13;10.85;;;;;;;4.20;51.93;97437.72;5030998;28;20053;-64
2022/03/03 10:37:43;;;;;;;21.23;11.27;;;;;;;4.20;49.96;97434.25;5053007;28;20140;-63
2022/03/03 10:40:15;;;;;;;20.38;10.63;;;;;;;4.34;48.50;97427.81;5051865;28;20033;-63
2022/03/03 10:42:44;;;;;;;22.83;9.70;;;;;;;4.47;47.53;97443.06;5033650;28;20079;-65
2022/03/03 10:45:17;;;;;;;18.38;10.93;;;;;;;4.52;47.94;97434.34;5026124;28;20049;-63
2022/03/03 10:48:03;;;;;;;21.17;11.00;;;;;;;4.53;48.64;97431.47;5036345;28;20552;-66
2022/03/03 10:50:47;;;;;;;21.77;12.32;;;;;;;4.57;49.27;97431.06;5027293;28;20041;-66
2022/03/03 10:53:21;;;;;;;19.35;10.75;;;;;;;4.57;48.95;97431.84;5043925;28;20489;-63
2022/03/03 10:56:12;;;;;;;20.98;11.23;;;;;;;4.63;48.58;97422.16;5041100;28;20049;-63
2022/03/03 10:58:57;;;;;;;22.10;11.43;;;;;;;4.78;49.00;97417.34;5043979;28;20044;-64
2022/03/03 11:01:32;;;;;;;19.90;10.38;;;;;;;4.80;48.16;97419.81;5062660;28;20067;-65
2022/03/03 11:04:00;;;;;;;19.85;10.95;;;;;;;4.88;48.08;97413.38;5035984;28;20147;-63
2022/03/03 11:06:29;;;;;;;21.15;11.10;;;;;;;4.96;48.58;97405.06;5025311;28;20090;-65
2022/03/03 11:08:57;;;;;;;24.77;12.18;;;;;;;5.05;48.05;97403.78;5044617;28;20573;-65
2022/03/03 11:11:25;;;;;;;22.73;11.25;;;;;;;5.14;47.06;97409.72;5041989;28;20044;-64
2022/03/03 11:13:53;;;;;;;21.45;11.98;;;;;;;5.23;47.41;97404.09;5052575;28;20152;-64
2022/03/03 11:16:22;;;;;;;25.30;12.35;;;;;;;5.23;46.64;97404.91;5042187;28;20060;-65
2022/03/03 11:18:49;;;;;;;24.98;12.88;;;;;;;5.30;46.71;97403.00;5037010;28;20059;-64
2022/03/03 11:21:16;;;;;;;24.00;12.75;;;;;;;5.34;48.38;97395.34;5031040;28;20049;-65
2022/03/03 11:23:43;;;;;;;25.98;13.95;;;;;;;5.44;49.14;97386.81;5039936;28;20044;-65
2022/03/03 11:26:19;;;;;;;19.38;12.20;;;;;;;5.51;48.78;97376.84;5037278;28;20505;-65
2022/03/03 11:29:14;;;;;;;24.13;13.00;;;;;;;5.42;48.38;97370.09;5033983;28;20053;-67